MRIT2: Lake Meredith

                                SHEF ID:       MRIT2     Lake Meredith
STATION TYPE: RESERVOIR
Flood Pool: Bottom = 2941.30, Top = 2965.00

PRECIP ELEVATION STORAGE INFLOW RELEASE WIND-DIRWIND-SPEED
in ft ac-ft cfs cfs deg mph
Ccp-Rev Ccp-Rev Ccp-Rev Rev-Regi Rev-Regi Ccp-Rev Ccp-Rev
(America/Chicago)
04/20 00:00 ---- 2891.22 259018 0 0 163.00 10.00
04/20 01:00 ---- 2891.19 258785 0 0 157.00 11.00
04/20 02:00 ---- 2891.22 259018 0 0 180.00 6.00
04/20 03:00 ---- 2891.19 258785 0 0 175.00 6.00
04/20 04:00 ---- 2891.21 258940 0 0 184.00 7.00
04/20 05:00 ---- 2891.19 258785 0 0 179.00 8.00
04/20 06:00 ---- 2891.22 259018 0 0 194.00 8.00
04/20 07:00 ---- 2891.20 258863 0 0 223.00 6.00
04/20 08:00 ---- 2891.20 258863 0 0 209.00 3.00
04/20 09:00 ---- 2891.21 258940 0 0 ---- ----
04/20 10:00 ---- 2891.19 258785 83 0 ---- ----
04/20 11:00 ---- 2891.22 259018 8113 0 ---- ----
04/20 12:00 ---- 2891.20 258863 8806 0 ---- ----
04/20 13:00 ---- 2891.70 262756 8806 0 ---- ----
04/20 14:00 ---- 2891.75 263148 8949 0 ---- ----
04/20 15:00 ---- 2891.73 262991 9153 0 ---- ----
04/20 16:00 ---- 2891.74 263070 1123 0 ---- ----
04/20 17:00 ---- 2891.76 263227 431 0 ---- ----
04/20 18:00 ---- 2891.75 263148 431 0 ---- ----
04/20 19:00 ---- 2891.74 263070 287 0 ---- ----
04/20 20:00 ---- 2891.74 263070 0 0 ---- ----
04/20 21:00 ---- 2891.72 262913 0 0 ---- ----
04/20 22:00 ---- 2891.71 262834 0 0 ---- ----
04/20 23:00 ---- ---- ---- ---- ---- ---- ----
Data processed at Tue 21Apr2026 04:43 GMT

NOTICE: If you are parsing this page

Please convert to using our Data API. Starting early 2026 we will be migrating to: https://water.usace.army.mil with modern pages rendered in JavaScript. When this migration completes you will no longer be able to scrape this page! CWMSDataAPI (CDA)

Timeseries IDs (TSIDs)

TSIDs used from left to right in the data table
MERE.Precip-Inc.Total.1Hour.1Hour.Ccp-Rev
MERE.Elev.Inst.1Hour.0.Ccp-Rev
MERE.Stor.Inst.1Hour.0.Ccp-Rev
MERE.Flow-Res In.Ave.1Hour.1Hour.Rev-Regi-Computed
MERE.Flow-Res Out.Ave.1Hour.1Hour.Rev-Regi-Flowgroup
MERE.Dir-Wind.Inst.1Hour.0.Ccp-Rev
MERE.Speed-Wind.Inst.1Hour.0.Ccp-Rev

                            

All information presented herein is the property of the government of the United States of America and may be revised or deleted at any time without prior notice. Dissemination of this information without the expressed written consent of the Public Affairs Office, Tulsa District U.S. Army Corps of Engineers is strictly prohibited. These data are gathered electronically and, as presented, have NOT undergone any form of quality control. These data are NOT guaranteed to be valid or correct.